PWSweather.com
Personal Weather Stations
Station Observations
KWAVA98665
Vancouver, WA 98665

Vancouver, WA 98665

Lat: 45.6827589, Lon: -122.63116100000002

Elevation: 262

Station Type: Davis VP2

http://www.bobsvp2wd.net

High Low Average
Temperature 48.1°F8.9°C 30.1°F-1.1°C 38.4°F3.6°C
Dew Point 31.4°F-0.3°C 16.6°F-8.6°C 24.0°F-4.4°C
Winds 6.9 mph 11.1 kmh Calm Calm 1.0 mph S1.6 kmh S
Wind Gusts 11.5 mph18.5 kmh -- 3.0 mph4.8 kmh
Humidity 91% 30% 60%
Pressure 30.32 in1026.8 mb 30.02 in1016.6 mb -
Precipitation 0.00 in0.0 mm - -
Hour Temp Dew Point Humidity Winds Wind Gusts Pressure Precip Precip Rate Daily Precip Total
12:00 AM 38.6°F3.7°C 31.4°F-0.3°C 75% 3.5 mph WNW5.6 kmh WNW 4.6 mph7.4 kmh 30.02 in1016.6 mb - 0.00 in0.0 mm 0.00 in0.0 mm
12:15 AM 38.0°F3.3°C 31.1°F-0.5°C 76% 1.2 mph NW1.9 kmh NW 3.5 mph5.6 kmh 30.03 in1016.9 mb - 0.00 in0.0 mm 0.00 in0.0 mm
12:30 AM 37.4°F3.0°C 30.8°F-0.7°C 77% 1.2 mph NW1.9 kmh NW 2.3 mph3.7 kmh 30.04 in1017.3 mb - 0.00 in0.0 mm 0.00 in0.0 mm
12:45 AM 36.7°F2.6°C 30.8°F-0.7°C 79% 1.2 mph N1.9 kmh N 2.3 mph3.7 kmh 30.04 in1017.3 mb - 0.00 in0.0 mm 0.00 in0.0 mm
01:00 AM 36.0°F2.2°C 30.4°F-0.9°C 80% Calm Calm 1.2 mph1.9 kmh 30.05 in1017.6 mb - 0.00 in0.0 mm 0.00 in0.0 mm
01:15 AM 35.7°F2.1°C 30.4°F-0.9°C 81% 1.2 mph NW1.9 kmh NW 3.5 mph5.6 kmh 30.06 in1017.9 mb - 0.00 in0.0 mm 0.00 in0.0 mm
01:30 AM 35.8°F2.1°C 30.5°F-0.8°C 81% 1.2 mph NW1.9 kmh NW 3.5 mph5.6 kmh 30.06 in1017.9 mb - 0.00 in0.0 mm 0.00 in0.0 mm
01:45 AM 36.0°F2.2°C 30.7°F-0.7°C 81% 2.3 mph NW3.7 kmh NW 3.5 mph5.6 kmh 30.07 in1018.3 mb - 0.00 in0.0 mm 0.00 in0.0 mm
02:00 AM 36.1°F2.3°C 30.5°F-0.8°C 80% 1.2 mph NW1.9 kmh NW 3.5 mph5.6 kmh 30.08 in1018.6 mb - 0.00 in0.0 mm 0.00 in0.0 mm
02:15 AM 36.0°F2.2°C 30.7°F-0.7°C 81% 1.2 mph NNW1.9 kmh NNW 3.5 mph5.6 kmh 30.08 in1018.6 mb - 0.00 in0.0 mm 0.00 in0.0 mm
02:30 AM 35.7°F2.1°C 30.4°F-0.9°C 81% Calm Calm -- 30.09 in1019.0 mb - 0.00 in0.0 mm 0.00 in0.0 mm
02:45 AM 35.5°F1.9°C 30.5°F-0.8°C 82% 1.2 mph NW1.9 kmh NW 3.5 mph5.6 kmh 30.09 in1019.0 mb - 0.00 in0.0 mm 0.00 in0.0 mm
03:15 AM 34.6°F1.4°C 30.0°F-1.1°C 83% Calm Calm -- 30.10 in1019.3 mb - 0.00 in0.0 mm 0.00 in0.0 mm
03:30 AM 34.0°F1.1°C 29.9°F-1.2°C 85% Calm Calm -- 30.11 in1019.6 mb - 0.00 in0.0 mm 0.00 in0.0 mm
03:45 AM 33.4°F0.8°C 29.7°F-1.3°C 86% Calm Calm -- 30.11 in1019.6 mb - 0.00 in0.0 mm 0.00 in0.0 mm
04:00 AM 32.8°F0.4°C 29.4°F-1.4°C 87% Calm Calm 1.2 mph1.9 kmh 30.11 in1019.6 mb - 0.00 in0.0 mm 0.00 in0.0 mm
04:15 AM 32.8°F0.4°C 29.6°F-1.3°C 88% 2.3 mph WNW3.7 kmh WNW 3.5 mph5.6 kmh 30.12 in1020.0 mb - 0.00 in0.0 mm 0.00 in0.0 mm
04:30 AM 32.6°F0.3°C 29.4°F-1.4°C 88% Calm Calm -- 30.11 in1019.6 mb - 0.00 in0.0 mm 0.00 in0.0 mm
04:45 AM 32.0°F0.0°C 29.1°F-1.6°C 89% Calm Calm -- 30.12 in1020.0 mb - 0.00 in0.0 mm 0.00 in0.0 mm
05:00 AM 31.9°F-0.1°C 29.0°F-1.7°C 89% Calm Calm 2.3 mph3.7 kmh 30.13 in1020.3 mb - 0.00 in0.0 mm 0.00 in0.0 mm
05:15 AM 31.7°F-0.2°C 29.1°F-1.6°C 90% 1.2 mph WNW1.9 kmh WNW 2.3 mph3.7 kmh 30.14 in1020.7 mb - 0.00 in0.0 mm 0.00 in0.0 mm
05:30 AM 31.7°F-0.2°C 28.8°F-1.8°C 89% Calm Calm -- 30.14 in1020.7 mb - 0.00 in0.0 mm 0.00 in0.0 mm
05:45 AM 31.4°F-0.3°C 28.5°F-1.9°C 89% Calm Calm 3.5 mph5.6 kmh 30.15 in1021.0 mb - 0.00 in0.0 mm 0.00 in0.0 mm
06:00 AM 31.3°F-0.4°C 28.7°F-1.8°C 90% 1.2 mph W1.9 kmh W 1.2 mph1.9 kmh 30.16 in1021.3 mb - 0.00 in0.0 mm 0.00 in0.0 mm
06:15 AM 30.6°F-0.8°C 28.0°F-2.2°C 90% Calm Calm -- 30.16 in1021.3 mb - 0.00 in0.0 mm 0.00 in0.0 mm
06:30 AM 30.4°F-0.9°C 28.1°F-2.2°C 91% Calm Calm 3.5 mph5.6 kmh 30.18 in1022.0 mb - 0.00 in0.0 mm 0.00 in0.0 mm
06:45 AM 30.6°F-0.8°C 28.3°F-2.1°C 91% Calm Calm -- 30.18 in1022.0 mb - 0.00 in0.0 mm 0.00 in0.0 mm
07:00 AM 30.3°F-0.9°C 27.7°F-2.4°C 90% Calm Calm -- 30.19 in1022.4 mb - 0.00 in0.0 mm 0.00 in0.0 mm
07:15 AM 30.3°F-0.9°C 28.0°F-2.2°C 91% Calm Calm -- 30.21 in1023.0 mb - 0.00 in0.0 mm 0.00 in0.0 mm
07:30 AM 30.3°F-0.9°C 28.0°F-2.2°C 91% 1.2 mph W1.9 kmh W 1.2 mph1.9 kmh 30.21 in1023.0 mb - 0.00 in0.0 mm 0.00 in0.0 mm
07:45 AM 30.1°F-1.1°C 27.8°F-2.3°C 91% Calm Calm -- 30.23 in1023.7 mb - 0.00 in0.0 mm 0.00 in0.0 mm
08:00 AM 30.7°F-0.7°C 28.4°F-2.0°C 91% Calm Calm -- 30.24 in1024.0 mb - 0.00 in0.0 mm 0.00 in0.0 mm
08:15 AM 32.2°F0.1°C 29.4°F-1.4°C 89% Calm Calm -- 30.24 in1024.0 mb - 0.00 in0.0 mm 0.00 in0.0 mm
08:45 AM 34.3°F1.3°C 30.0°F-1.1°C 84% 1.2 mph WSW1.9 kmh WSW 1.2 mph1.9 kmh 30.24 in1024.0 mb - 0.00 in0.0 mm 0.00 in0.0 mm
09:00 AM 35.7°F2.1°C 30.4°F-0.9°C 81% Calm Calm 1.2 mph1.9 kmh 30.24 in1024.0 mb - 0.00 in0.0 mm 0.00 in0.0 mm
09:15 AM 36.1°F2.3°C 29.9°F-1.2°C 78% 1.2 mph W1.9 kmh W 2.3 mph3.7 kmh 30.24 in1024.0 mb - 0.00 in0.0 mm 0.00 in0.0 mm
09:30 AM 37.8°F3.2°C 28.2°F-2.1°C 68% 3.5 mph NNW5.6 kmh NNW 4.6 mph7.4 kmh 30.24 in1024.0 mb - 0.00 in0.0 mm 0.00 in0.0 mm
09:45 AM 40.2°F4.6°C 28.6°F-1.9°C 63% Calm Calm 3.5 mph5.6 kmh 30.24 in1024.0 mb - 0.00 in0.0 mm 0.00 in0.0 mm
10:00 AM 41.6°F5.3°C 23.3°F-4.8°C 48% 3.5 mph E5.6 kmh E 5.8 mph9.3 kmh 30.25 in1024.4 mb - 0.00 in0.0 mm 0.00 in0.0 mm
10:15 AM 42.5°F5.8°C 22.6°F-5.2°C 45% 3.5 mph E5.6 kmh E 4.6 mph7.4 kmh 30.25 in1024.4 mb - 0.00 in0.0 mm 0.00 in0.0 mm
10:30 AM 42.5°F5.8°C 20.4°F-6.4°C 41% 5.8 mph E9.3 kmh E 10.4 mph16.7 kmh 30.25 in1024.4 mb - 0.00 in0.0 mm 0.00 in0.0 mm
10:45 AM 44.3°F6.8°C 23.2°F-4.9°C 43% 2.3 mph E3.7 kmh E 5.8 mph9.3 kmh 30.26 in1024.7 mb - 0.00 in0.0 mm 0.00 in0.0 mm
11:00 AM 44.1°F6.7°C 21.3°F-5.9°C 40% 2.3 mph NNE3.7 kmh NNE 3.5 mph5.6 kmh 30.26 in1024.7 mb - 0.00 in0.0 mm 0.00 in0.0 mm
11:15 AM 44.2°F6.8°C 21.9°F-5.6°C 41% 1.2 mph NNW1.9 kmh NNW 3.5 mph5.6 kmh 30.26 in1024.7 mb - 0.00 in0.0 mm 0.00 in0.0 mm
11:30 AM 43.8°F6.6°C 21.6°F-5.8°C 41% 4.6 mph NNW7.4 kmh NNW 6.9 mph11.1 kmh 30.27 in1025.1 mb - 0.00 in0.0 mm 0.00 in0.0 mm
11:45 AM 44.5°F6.9°C 21.6°F-5.8°C 40% 2.3 mph E3.7 kmh E 4.6 mph7.4 kmh 30.27 in1025.1 mb - 0.00 in0.0 mm 0.00 in0.0 mm
12:00 PM 44.8°F7.1°C 20.7°F-6.3°C 38% 3.5 mph E5.6 kmh E 8.1 mph13.0 kmh 30.27 in1025.1 mb - 0.00 in0.0 mm 0.00 in0.0 mm
12:15 PM 46.5°F8.1°C 21.6°F-5.8°C 37% 3.5 mph N5.6 kmh N 8.1 mph13.0 kmh 30.27 in1025.1 mb - 0.00 in0.0 mm 0.00 in0.0 mm
12:30 PM 45.7°F7.6°C 20.3°F-6.5°C 36% 3.5 mph SE5.6 kmh SE 5.8 mph9.3 kmh 30.27 in1025.1 mb - 0.00 in0.0 mm 0.00 in0.0 mm
12:45 PM 46.4°F8.0°C 20.2°F-6.6°C 35% 1.2 mph NE1.9 kmh NE 2.3 mph3.7 kmh 30.26 in1024.7 mb - 0.00 in0.0 mm 0.00 in0.0 mm
01:00 PM 47.0°F8.3°C 19.4°F-7.0°C 33% 2.3 mph SE3.7 kmh SE 3.5 mph5.6 kmh 30.26 in1024.7 mb - 0.00 in0.0 mm 0.00 in0.0 mm
01:15 PM 46.4°F8.0°C 16.6°F-8.6°C 30% 4.6 mph E7.4 kmh E 10.4 mph16.7 kmh 30.26 in1024.7 mb - 0.00 in0.0 mm 0.00 in0.0 mm
01:30 PM 46.9°F8.3°C 19.2°F-7.1°C 33% 2.3 mph NNE3.7 kmh NNE 3.5 mph5.6 kmh 30.26 in1024.7 mb - 0.00 in0.0 mm 0.00 in0.0 mm
01:45 PM 45.8°F7.7°C 16.8°F-8.4°C 31% 3.5 mph E5.6 kmh E 3.5 mph5.6 kmh 30.25 in1024.4 mb - 0.00 in0.0 mm 0.00 in0.0 mm
02:00 PM 46.5°F8.1°C 17.5°F-8.1°C 31% 6.9 mph E11.1 kmh E 8.1 mph13.0 kmh 30.25 in1024.4 mb - 0.00 in0.0 mm 0.00 in0.0 mm
02:15 PM 46.9°F8.3°C 19.2°F-7.1°C 33% 2.3 mph E3.7 kmh E 9.2 mph14.8 kmh 30.25 in1024.4 mb - 0.00 in0.0 mm 0.00 in0.0 mm
02:30 PM 46.7°F8.2°C 18.3°F-7.6°C 32% 5.8 mph E9.3 kmh E 9.2 mph14.8 kmh 30.25 in1024.4 mb - 0.00 in0.0 mm 0.00 in0.0 mm
02:45 PM 46.7°F8.2°C 18.3°F-7.6°C 32% 6.9 mph E11.1 kmh E 11.5 mph18.5 kmh 30.25 in1024.4 mb - 0.00 in0.0 mm 0.00 in0.0 mm
03:00 PM 46.9°F8.3°C 18.5°F-7.5°C 32% 3.5 mph E5.6 kmh E 6.9 mph11.1 kmh 30.25 in1024.4 mb - 0.00 in0.0 mm 0.00 in0.0 mm
03:15 PM 47.9°F8.8°C 19.4°F-7.0°C 32% 2.3 mph E3.7 kmh E 6.9 mph11.1 kmh 30.25 in1024.4 mb - 0.00 in0.0 mm 0.00 in0.0 mm
03:30 PM 47.2°F8.4°C 18.8°F-7.3°C 32% 4.6 mph E7.4 kmh E 6.9 mph11.1 kmh 30.25 in1024.4 mb - 0.00 in0.0 mm 0.00 in0.0 mm
03:45 PM 48.1°F8.9°C 18.8°F-7.3°C 31% 3.5 mph E5.6 kmh E 3.5 mph5.6 kmh 30.25 in1024.4 mb - 0.00 in0.0 mm 0.00 in0.0 mm
04:00 PM 46.9°F8.3°C 17.8°F-7.9°C 31% 2.3 mph ENE3.7 kmh ENE 8.1 mph13.0 kmh 30.26 in1024.7 mb - 0.00 in0.0 mm 0.00 in0.0 mm
04:15 PM 46.9°F8.3°C 18.6°F-7.4°C 32% 1.2 mph ESE1.9 kmh ESE 3.5 mph5.6 kmh 30.26 in1024.7 mb - 0.00 in0.0 mm 0.00 in0.0 mm
04:30 PM 47.2°F8.4°C 18.1°F-7.7°C 31% 3.5 mph E5.6 kmh E 4.6 mph7.4 kmh 30.27 in1025.1 mb - 0.00 in0.0 mm 0.00 in0.0 mm
04:45 PM 46.2°F7.9°C 17.2°F-8.2°C 31% 2.3 mph ESE3.7 kmh ESE 2.3 mph3.7 kmh 30.27 in1025.1 mb - 0.00 in0.0 mm 0.00 in0.0 mm
05:00 PM 46.1°F7.8°C 17.8°F-7.9°C 32% 3.5 mph ENE5.6 kmh ENE 3.5 mph5.6 kmh 30.27 in1025.1 mb - 0.00 in0.0 mm 0.00 in0.0 mm
05:15 PM 45.3°F7.4°C 17.2°F-8.2°C 32% 1.2 mph ESE1.9 kmh ESE 2.3 mph3.7 kmh 30.27 in1025.1 mb - 0.00 in0.0 mm 0.00 in0.0 mm
05:30 PM 44.5°F6.9°C 17.1°F-8.3°C 33% 3.5 mph ENE5.6 kmh ENE 4.6 mph7.4 kmh 30.27 in1025.1 mb - 0.00 in0.0 mm 0.00 in0.0 mm
05:45 PM 43.7°F6.5°C 17.8°F-7.9°C 35% 2.3 mph E3.7 kmh E 3.5 mph5.6 kmh 30.27 in1025.1 mb - 0.00 in0.0 mm 0.00 in0.0 mm
06:00 PM 42.8°F6.0°C 17.6°F-8.0°C 36% 1.2 mph SE1.9 kmh SE 3.5 mph5.6 kmh 30.26 in1024.7 mb - 0.00 in0.0 mm 0.00 in0.0 mm
06:15 PM 42.1°F5.6°C 18.3°F-7.6°C 38% 2.3 mph ENE3.7 kmh ENE 3.5 mph5.6 kmh 30.26 in1024.7 mb - 0.00 in0.0 mm 0.00 in0.0 mm
06:30 PM 41.6°F5.3°C 19.6°F-6.9°C 41% 1.2 mph E1.9 kmh E 4.6 mph7.4 kmh 30.27 in1025.1 mb - 0.00 in0.0 mm 0.00 in0.0 mm
06:45 PM 40.5°F4.7°C 19.8°F-6.8°C 43% Calm Calm 1.2 mph1.9 kmh 30.27 in1025.1 mb - 0.00 in0.0 mm 0.00 in0.0 mm
07:00 PM 39.7°F4.3°C 19.0°F-7.2°C 43% Calm Calm -- 30.28 in1025.4 mb - 0.00 in0.0 mm 0.00 in0.0 mm
07:15 PM 39.0°F3.9°C 19.4°F-7.0°C 45% Calm Calm -- 30.29 in1025.7 mb - 0.00 in0.0 mm 0.00 in0.0 mm
07:30 PM 38.0°F3.3°C 21.9°F-5.6°C 52% Calm Calm -- 30.29 in1025.7 mb - 0.00 in0.0 mm 0.00 in0.0 mm
07:45 PM 37.2°F2.9°C 24.1°F-4.4°C 59% Calm Calm -- 30.29 in1025.7 mb - 0.00 in0.0 mm 0.00 in0.0 mm
08:00 PM 36.5°F2.5°C 22.7°F-5.2°C 57% Calm Calm 2.3 mph3.7 kmh 30.29 in1025.7 mb - 0.00 in0.0 mm 0.00 in0.0 mm
08:15 PM 36.4°F2.4°C 22.6°F-5.2°C 57% Calm Calm -- 30.29 in1025.7 mb - 0.00 in0.0 mm 0.00 in0.0 mm
08:30 PM 36.3°F2.4°C 21.7°F-5.7°C 55% Calm Calm -- 30.29 in1025.7 mb - 0.00 in0.0 mm 0.00 in0.0 mm
08:45 PM 36.1°F2.3°C 20.2°F-6.6°C 52% Calm Calm -- 30.30 in1026.1 mb - 0.00 in0.0 mm 0.00 in0.0 mm
09:00 PM 35.7°F2.1°C 24.3°F-4.3°C 63% Calm Calm 1.2 mph1.9 kmh 30.29 in1025.7 mb - 0.00 in0.0 mm 0.00 in0.0 mm
09:15 PM 34.9°F1.6°C 24.7°F-4.1°C 66% Calm Calm -- 30.29 in1025.7 mb - 0.00 in0.0 mm 0.00 in0.0 mm
09:30 PM 34.5°F1.4°C 21.2°F-6.0°C 58% Calm Calm -- 30.30 in1026.1 mb - 0.00 in0.0 mm 0.00 in0.0 mm
09:45 PM 34.2°F1.2°C 21.3°F-5.9°C 59% Calm Calm -- 30.30 in1026.1 mb - 0.00 in0.0 mm 0.00 in0.0 mm
10:00 PM 33.6°F0.9°C 21.6°F-5.8°C 61% Calm Calm -- 30.31 in1026.4 mb - 0.00 in0.0 mm 0.00 in0.0 mm
10:15 PM 32.9°F0.5°C 21.7°F-5.7°C 63% Calm Calm -- 30.31 in1026.4 mb - 0.00 in0.0 mm 0.00 in0.0 mm
10:30 PM 32.3°F0.2°C 21.9°F-5.6°C 65% Calm Calm -- 30.31 in1026.4 mb - 0.00 in0.0 mm 0.00 in0.0 mm
10:45 PM 31.9°F-0.1°C 21.1°F-6.1°C 64% Calm Calm -- 30.31 in1026.4 mb - 0.00 in0.0 mm 0.00 in0.0 mm
11:00 PM 32.0°F0.0°C 20.8°F-6.2°C 63% Calm Calm -- 30.31 in1026.4 mb - 0.00 in0.0 mm 0.00 in0.0 mm
11:15 PM 31.7°F-0.2°C 22.0°F-5.6°C 67% 1.2 mph SE1.9 kmh SE 2.3 mph3.7 kmh 30.32 in1026.8 mb - 0.00 in0.0 mm 0.00 in0.0 mm
11:30 PM 30.8°F-0.7°C 22.8°F-5.1°C 72% 1.2 mph SE1.9 kmh SE 2.3 mph3.7 kmh 30.32 in1026.8 mb - 0.00 in0.0 mm 0.00 in0.0 mm
11:45 PM 30.2°F-1.0°C 22.3°F-5.4°C 72% Calm Calm 2.3 mph3.7 kmh 30.31 in1026.4 mb - 0.00 in0.0 mm 0.00 in0.0 mm